Wilsona Gardens, California
Current Conditions -  °F | °C
As of 4:58 PM on Wednesday 22 Oct 2014 (Local Time) from KEDW Reporting Station
Broken Clouds Broken Clouds  
Wind Chill: 79°   Ceiling: 30000
Heat Index: 79°   Visibility: 80mi
Dew Point: 30°   Wind: 2mph
Humidity: 16%   Direction: 340°NNW
Pressure: 29.97"   Gusts: NA
Location:  34.7192°N, 117.884°W
Report Text: KEDW 222358Z 34002KT 80SM BKN300 26/M01 A2997 RMK AO2A SLP137 CONTRAILS T02631012 10268 20183 57011
Loading
Personal Weather Stations






























Interactive Weather Map
Tropical Storm Tracking
New forecast layout! Learn more

10-Day Weather Forecast

Advertisements
Track Severe Weather on mobile